Time;durP1;ratioP1;P1;durP2;ratioP2;P2;SDS_P1;SDS_P2;PMS_P1;PMS_P2;Temp;Humidity;BMP_temperature;BMP_pressure;BME280_temperature;BME280_humidity;BME280_pressure;Samples;Min_cycle;Max_cycle;Signal;HPM_P1;HPM_P2
2022/05/06 00:02:00;;;;;;;11.27;8.82;;;;;;;13.60;nan;95637.03;5002818;28;20210;-71
2022/05/06 00:04:26;;;;;;;12.00;9.05;;;;;;;13.61;nan;95638.66;5000675;28;20677;-72
2022/05/06 00:10:15;;;;;;;10.80;8.88;;;;;;;13.62;nan;95636.06;5000463;28;20266;-71
2022/05/06 00:12:43;;;;;;;11.98;8.95;;;;;;;13.71;nan;95640.00;5001165;28;20671;-71
2022/05/06 00:15:11;;;;;;;10.70;9.68;;;;;;;13.54;nan;95643.19;5000491;28;20932;-71
2022/05/06 00:17:38;;;;;;;11.18;8.98;;;;;;;13.59;nan;95640.47;5002384;28;20199;-73
2022/05/06 00:20:07;;;;;;;19.23;9.82;;;;;;;13.75;nan;95636.47;5001816;28;20706;-72
2022/05/06 00:22:33;;;;;;;10.55;9.48;;;;;;;13.71;nan;95644.28;5000996;28;20204;-73
2022/05/06 00:25:00;;;;;;;14.45;8.85;;;;;;;13.47;nan;95643.44;5003444;28;20251;-73
2022/05/06 00:27:27;;;;;;;12.35;9.27;;;;;;;13.35;nan;95647.28;5002572;28;20200;-73
2022/05/06 00:29:55;;;;;;;9.52;8.52;;;;;;;13.14;nan;95637.75;5000801;28;20204;-72
2022/05/06 00:32:22;;;;;;;10.20;9.32;;;;;;;13.04;nan;95644.91;5002136;28;20208;-73
2022/05/06 00:34:49;;;;;;;10.70;8.55;;;;;;;12.92;nan;95646.16;5001383;28;20784;-73
2022/05/06 00:37:15;;;;;;;9.57;8.77;;;;;;;12.99;nan;95659.53;4999271;28;20256;-73
2022/05/06 00:39:42;;;;;;;11.35;8.90;;;;;;;12.76;nan;95651.81;5001737;28;20338;-74
2022/05/06 00:42:09;;;;;;;10.23;8.25;;;;;;;13.03;nan;95650.06;4997343;28;20691;-73
2022/05/06 00:44:36;;;;;;;11.43;9.43;;;;;;;13.08;nan;95633.72;5002031;28;20239;-72
2022/05/06 00:47:06;;;;;;;15.38;9.38;;;;;;;12.95;nan;95648.59;5001910;28;21331;-71
2022/05/06 00:49:33;;;;;;;10.93;9.35;;;;;;;13.20;nan;95648.63;4998562;28;20232;-72
2022/05/06 00:52:00;;;;;;;13.32;9.50;;;;;;;13.30;nan;95649.16;4999749;28;20647;-72
2022/05/06 00:54:27;;;;;;;15.57;9.13;;;;;;;13.07;nan;95646.53;5001562;28;20208;-71
2022/05/06 00:56:55;;;;;;;10.07;9.15;;;;;;;12.68;nan;95652.06;5000265;28;20216;-72
2022/05/06 00:59:21;;;;;;;9.73;8.93;;;;;;;12.46;nan;95651.06;4998012;28;20210;-72
2022/05/06 01:01:48;;;;;;;10.35;9.30;;;;;;;12.47;nan;95650.19;4993924;28;21300;-71
2022/05/06 01:04:17;;;;;;;14.40;9.38;;;;;;;12.39;nan;95649.59;4993968;28;20725;-71
2022/05/06 01:06:45;;;;;;;10.38;8.98;;;;;;;12.48;nan;95652.69;4997560;28;20204;-70
2022/05/06 01:09:15;;;;;;;9.35;8.55;;;;;;;12.51;nan;95651.78;4997240;28;20278;-72
2022/05/06 01:11:42;;;;;;;10.02;9.13;;;;;;;12.62;nan;95656.53;4997762;28;20337;-71
2022/05/06 01:14:09;;;;;;;12.88;8.02;;;;;;;12.09;nan;95646.28;5002191;28;20698;-70
2022/05/06 01:16:37;;;;;;;9.10;8.13;;;;;;;11.99;nan;95668.66;4999176;28;20789;-71
2022/05/06 01:19:05;;;;;;;8.82;7.88;;;;;;;12.17;nan;95657.91;5000388;28;21089;-72
2022/05/06 01:21:36;;;;;;;8.18;7.40;;;;;;;12.57;nan;95656.69;4998945;28;20769;-71
2022/05/06 01:24:04;;;;;;;8.93;7.88;;;;;;;12.54;nan;95655.06;4995626;28;20231;-71
2022/05/06 01:26:54;;;;;;;8.40;7.47;;;;;;;12.65;nan;95657.25;5000459;28;20219;-69
2022/05/06 01:29:23;;;;;;;8.10;7.43;;;;;;;12.78;nan;95656.00;4998328;28;20209;-72
2022/05/06 01:31:50;;;;;;;7.85;7.28;;;;;;;12.80;nan;95659.31;5000685;28;20204;-70
2022/05/06 01:34:18;;;;;;;8.55;7.85;;;;;;;12.94;nan;95649.47;5000971;28;20602;-70
2022/05/06 01:36:47;;;;;;;8.07;7.38;;;;;;;12.91;nan;95641.94;4999771;28;20382;-70
2022/05/06 01:39:18;;;;;;;8.48;7.53;;;;;;;13.06;nan;95644.88;5002062;28;20198;-70
2022/05/06 01:41:50;;;;;;;8.93;8.23;;;;;;;13.06;nan;95649.97;4999917;28;20573;-70
2022/05/06 01:44:20;;;;;;;10.30;7.75;;;;;;;13.00;nan;95632.31;4996790;28;20831;-72
2022/05/06 01:46:48;;;;;;;8.85;7.68;;;;;;;12.94;nan;95631.63;4998590;28;20203;-70
2022/05/06 01:49:16;;;;;;;9.70;7.88;;;;;;;12.67;nan;95639.34;5001445;28;20313;-70
2022/05/06 01:51:44;;;;;;;9.55;8.75;;;;;;;12.58;nan;95641.34;4999733;28;20210;-71
2022/05/06 01:54:11;;;;;;;10.07;8.25;;;;;;;12.72;nan;95638.31;4999587;28;20215;-71
2022/05/06 01:56:39;;;;;;;11.90;8.30;;;;;;;12.90;nan;95644.53;4994564;28;20810;-70
2022/05/06 01:59:06;;;;;;;18.55;9.15;;;;;;;13.01;nan;95641.63;4996717;28;20293;-71
2022/05/06 02:01:34;;;;;;;13.57;9.20;;;;;;;12.46;nan;95643.44;4997971;28;20207;-73
2022/05/06 02:06:41;;;;;;;12.50;8.55;;;;;;;12.64;nan;95642.84;4976125;28;20242;-71
2022/05/06 02:09:08;;;;;;;9.60;8.27;;;;;;;12.26;nan;95644.88;4999580;28;20215;-71
2022/05/06 02:11:34;;;;;;;9.50;8.50;;;;;;;12.47;nan;95642.53;5000941;28;20342;-71
2022/05/06 02:14:03;;;;;;;12.30;8.52;;;;;;;12.21;nan;95646.75;5000645;28;20666;-71
2022/05/06 02:16:30;;;;;;;8.68;7.93;;;;;;;12.03;nan;95654.09;5000217;28;20523;-73
2022/05/06 02:18:57;;;;;;;9.55;8.75;;;;;;;12.07;nan;95656.53;4999862;28;20290;-71
2022/05/06 02:21:23;;;;;;;9.68;7.82;;;;;;;12.12;nan;95659.78;5001957;28;20207;-71
2022/05/06 02:23:50;;;;;;;12.23;8.55;;;;;;;11.95;nan;95656.88;5000152;28;20876;-70
2022/05/06 02:26:17;;;;;;;11.75;8.35;;;;;;;12.07;nan;95655.69;5001829;28;20714;-71
2022/05/06 02:28:43;;;;;;;11.85;9.32;;;;;;;12.32;nan;95650.69;5002031;28;21068;-71
2022/05/06 02:33:56;;;;;;;10.00;8.57;;;;;;;12.46;nan;95646.81;5001249;28;20214;-71
2022/05/06 02:36:22;;;;;;;12.02;9.38;;;;;;;12.40;nan;95641.91;5000773;28;20227;-72
2022/05/06 02:38:49;;;;;;;14.30;10.55;;;;;;;12.21;nan;95644.19;5001510;28;20214;-71
2022/05/06 02:41:16;;;;;;;10.82;9.48;;;;;;;12.18;nan;95643.44;5000308;28;20413;-70
2022/05/06 02:43:43;;;;;;;16.45;9.88;;;;;;;12.12;nan;95652.13;4999919;28;20244;-71
2022/05/06 02:46:11;;;;;;;12.50;9.55;;;;;;;11.78;nan;95648.91;5001535;28;20211;-71
2022/05/06 02:48:38;;;;;;;11.25;8.88;;;;;;;11.98;nan;95646.59;5000566;28;20286;-72
2022/05/06 02:51:05;;;;;;;11.73;8.95;;;;;;;11.92;nan;95654.41;5000358;28;20681;-73
2022/05/06 02:53:32;;;;;;;9.93;8.45;;;;;;;11.93;nan;95646.72;5002452;28;20200;-71
2022/05/06 02:55:59;;;;;;;13.27;8.98;;;;;;;12.03;nan;95644.75;5004704;28;20279;-70
2022/05/06 02:58:26;;;;;;;10.13;8.32;;;;;;;11.88;nan;95655.38;5003565;28;20714;-70
2022/05/06 03:00:53;;;;;;;8.85;8.00;;;;;;;11.87;nan;95651.19;5004063;28;20375;-71
2022/05/06 03:03:21;;;;;;;8.60;7.80;;;;;;;11.89;nan;95662.13;5005161;28;20215;-72
2022/05/06 03:05:47;;;;;;;10.60;8.43;;;;;;;11.67;nan;95661.06;5004983;28;20208;-73
2022/05/06 03:08:14;;;;;;;8.63;7.90;;;;;;;11.95;nan;95653.50;5004058;28;20206;-70
2022/05/06 03:10:41;;;;;;;9.77;8.30;;;;;;;12.06;nan;95649.75;5003060;28;21063;-70
2022/05/06 03:13:08;;;;;;;10.57;8.45;;;;;;;12.05;nan;95653.19;5003919;28;20676;-71
2022/05/06 03:15:35;;;;;;;8.55;7.78;;;;;;;12.10;nan;95661.53;5002680;28;20322;-72
2022/05/06 03:18:02;;;;;;;8.75;8.05;;;;;;;12.23;nan;95665.38;5003117;28;20877;-72
2022/05/06 03:20:30;;;;;;;11.30;8.80;;;;;;;12.12;nan;95656.41;5002654;28;20333;-71
2022/05/06 03:22:56;;;;;;;8.88;8.07;;;;;;;12.43;nan;95653.72;5001996;28;20262;-71
2022/05/06 03:25:23;;;;;;;9.40;8.60;;;;;;;12.18;nan;95659.56;5002542;28;20259;-71
2022/05/06 03:28:08;;;;;;;10.85;9.85;;;;;;;12.26;nan;95662.72;5003233;28;20277;-71
2022/05/06 03:30:39;;;;;;;10.68;9.68;;;;;;;11.95;nan;95672.16;5003873;28;20235;-70
2022/05/06 03:33:09;;;;;;;11.55;9.45;;;;;;;12.16;nan;95661.31;5002791;28;20986;-71
2022/05/06 03:35:38;;;;;;;12.10;8.95;;;;;;;12.34;nan;95671.88;5002449;28;20252;-71
2022/05/06 03:38:06;;;;;;;12.18;9.63;;;;;;;12.15;nan;95676.66;5003614;28;20204;-71
2022/05/06 03:40:33;;;;;;;14.00;10.38;;;;;;;12.18;nan;95679.94;5004439;28;20798;-71
2022/05/06 03:43:00;;;;;;;17.27;10.82;;;;;;;12.20;nan;95679.91;5001918;28;20214;-71
2022/05/06 03:45:27;;;;;;;12.55;11.20;;;;;;;11.99;nan;95683.94;5000166;28;20230;-71
2022/05/06 03:47:54;;;;;;;17.38;14.25;;;;;;;11.94;nan;95685.78;5002253;28;20740;-71
2022/05/06 03:53:07;;;;;;;15.77;10.73;;;;;;;12.10;nan;95684.47;5002549;28;20230;-70
2022/05/06 03:55:34;;;;;;;9.90;9.00;;;;;;;12.23;nan;95683.22;5000124;28;20314;-72
2022/05/06 03:58:01;;;;;;;11.25;9.38;;;;;;;12.38;nan;95692.09;4999655;28;20208;-73
2022/05/06 04:00:27;;;;;;;11.35;9.35;;;;;;;12.35;nan;95688.81;5003226;28;20558;-71
2022/05/06 04:02:54;;;;;;;10.05;9.13;;;;;;;11.76;nan;95702.41;5006057;28;20317;-72
2022/05/06 04:05:21;;;;;;;12.30;9.02;;;;;;;11.56;nan;95709.75;5003052;28;20204;-72
2022/05/06 04:07:48;;;;;;;13.60;9.18;;;;;;;11.69;nan;95700.88;5000661;28;20676;-72
2022/05/06 04:10:16;;;;;;;11.82;8.48;;;;;;;11.86;nan;95703.00;5001377;28;20239;-71
2022/05/06 04:12:42;;;;;;;12.00;9.55;;;;;;;11.84;nan;95709.84;5001752;28;20241;-71
2022/05/06 04:15:10;;;;;;;8.80;7.93;;;;;;;11.69;nan;95705.13;5000423;28;20239;-71
2022/05/06 04:17:37;;;;;;;11.90;8.85;;;;;;;11.70;nan;95702.56;5004562;28;20238;-72
2022/05/06 04:25:38;;;;;;;12.23;10.65;;;;;;;12.14;nan;95690.28;5002238;28;21505;-71
2022/05/06 04:28:05;;;;;;;10.88;9.70;;;;;;;12.15;nan;95702.97;5002119;28;20219;-71
2022/05/06 04:30:32;;;;;;;10.98;8.60;;;;;;;12.32;nan;95701.66;5004759;28;20329;-71
2022/05/06 04:32:59;;;;;;;15.98;8.45;;;;;;;12.52;nan;95709.53;5003654;28;20236;-71
2022/05/06 04:35:26;;;;;;;18.55;10.75;;;;;;;12.31;nan;95715.28;5004350;28;20230;-71
2022/05/06 04:37:52;;;;;;;19.85;11.57;;;;;;;12.19;nan;95719.84;5003895;28;20280;-72
2022/05/06 04:40:19;;;;;;;10.02;9.05;;;;;;;12.12;nan;95722.63;5002587;28;20253;-72
2022/05/06 04:42:47;;;;;;;11.00;9.10;;;;;;;12.13;nan;95721.72;5004208;28;20207;-71
2022/05/06 04:45:14;;;;;;;11.23;8.25;;;;;;;12.15;nan;95720.81;5002866;28;20273;-71
2022/05/06 04:47:41;;;;;;;9.48;8.35;;;;;;;12.21;nan;95714.72;5002548;28;20212;-74
2022/05/06 04:50:08;;;;;;;12.13;8.95;;;;;;;12.16;nan;95702.09;5001965;28;20212;-73
2022/05/06 04:52:35;;;;;;;10.80;9.73;;;;;;;12.16;nan;95722.47;5003405;28;20317;-72
2022/05/06 04:55:02;;;;;;;9.98;8.32;;;;;;;12.10;nan;95722.69;5002742;28;20207;-72
2022/05/06 04:57:29;;;;;;;11.27;8.43;;;;;;;12.42;nan;95725.97;5003762;28;20231;-73
2022/05/06 04:59:57;;;;;;;14.85;8.70;;;;;;;12.45;nan;95718.25;5003564;28;20214;-72
2022/05/06 05:02:26;;;;;;;8.57;7.72;;;;;;;12.77;nan;95732.56;5002070;28;20216;-70
2022/05/06 05:04:56;;;;;;;10.90;8.57;;;;;;;12.81;nan;95734.13;5002966;28;20206;-73
2022/05/06 05:07:23;;;;;;;10.85;9.20;;;;;;;12.69;nan;95737.88;5003388;28;20674;-71
2022/05/06 05:09:50;;;;;;;12.50;9.35;;;;;;;12.73;nan;95729.25;5003253;28;20262;-71
2022/05/06 05:12:17;;;;;;;9.25;8.50;;;;;;;12.95;nan;95730.25;5002953;28;20631;-71
2022/05/06 05:14:44;;;;;;;9.60;8.80;;;;;;;13.08;nan;95737.50;5003442;28;20856;-71
2022/05/06 05:17:12;;;;;;;16.02;9.57;;;;;;;13.07;nan;95733.28;5000605;28;20301;-71
2022/05/06 05:19:40;;;;;;;13.70;9.18;;;;;;;13.12;nan;95749.25;5003366;28;20288;-72
2022/05/06 05:22:07;;;;;;;15.38;11.65;;;;;;;13.24;nan;95731.88;5003110;28;20358;-71
2022/05/06 05:24:34;;;;;;;19.33;16.17;;;;;;;13.43;nan;95744.84;5003445;28;20281;-70
2022/05/06 05:27:01;;;;;;;35.05;23.38;;;;;;;13.61;nan;95736.56;5003750;28;20215;-71
2022/05/06 05:29:28;;;;;;;21.58;12.23;;;;;;;13.68;nan;95721.03;5002115;28;20356;-71
2022/05/06 05:31:56;;;;;;;12.82;10.75;;;;;;;14.02;nan;95731.72;5002640;28;20200;-71
2022/05/06 05:34:25;;;;;;;13.15;8.73;;;;;;;14.16;nan;95734.59;5004344;28;20207;-72
2022/05/06 05:36:52;;;;;;;13.75;8.93;;;;;;;14.41;nan;95738.81;5002931;28;20232;-72
2022/05/06 05:39:18;;;;;;;9.43;7.53;;;;;;;14.66;nan;95737.00;5003157;28;20231;-71
2022/05/06 05:41:45;;;;;;;8.02;7.05;;;;;;;15.17;nan;95735.81;5001417;28;20292;-71
2022/05/06 05:50:20;;;;;;;13.18;8.73;;;;;;;16.38;nan;95729.72;5003077;28;20206;-71
2022/05/06 05:52:46;;;;;;;9.05;6.82;;;;;;;16.92;nan;95726.34;5002141;28;20740;-73
2022/05/06 05:55:14;;;;;;;7.85;6.18;;;;;;;17.66;nan;95728.72;5003428;28;20309;-72
2022/05/06 05:57:42;;;;;;;10.85;6.88;;;;;;;18.68;nan;95731.91;5002390;28;20224;-72
2022/05/06 06:00:09;;;;;;;8.52;7.15;;;;;;;19.57;nan;95726.88;5003729;28;20258;-72
2022/05/06 06:02:37;;;;;;;6.57;6.18;;;;;;;19.72;nan;95727.75;5002645;28;20196;-71
2022/05/06 06:05:04;;;;;;;11.07;7.30;;;;;;;19.70;nan;95723.53;5004712;28;20223;-73
2022/05/06 06:07:33;;;;;;;7.80;7.03;;;;;;;20.67;nan;95721.09;5003100;28;20688;-72
2022/05/06 06:10:00;;;;;;;7.97;6.68;;;;;;;20.24;nan;95728.88;5004150;28;20204;-73
2022/05/06 06:12:27;;;;;;;7.88;7.18;;;;;;;20.68;nan;95722.75;5003831;28;20227;-72
2022/05/06 06:14:55;;;;;;;7.18;6.63;;;;;;;20.99;nan;95722.47;5004126;28;20732;-73
2022/05/06 06:17:23;;;;;;;7.40;6.50;;;;;;;20.14;nan;95711.47;5002908;28;20415;-72
2022/05/06 06:19:49;;;;;;;7.57;6.55;;;;;;;20.77;nan;95721.34;5002566;28;20756;-72
2022/05/06 06:22:16;;;;;;;8.43;7.53;;;;;;;19.99;nan;95723.53;5004142;28;20200;-72
2022/05/06 06:24:44;;;;;;;7.22;6.57;;;;;;;20.10;nan;95726.28;5005640;28;20200;-72
2022/05/06 06:27:11;;;;;;;10.30;7.72;;;;;;;19.17;nan;95723.19;5002570;28;20293;-73
2022/05/06 06:29:38;;;;;;;9.27;6.60;;;;;;;19.17;nan;95724.00;5008303;28;22145;-71
2022/05/06 06:32:05;;;;;;;7.40;6.80;;;;;;;18.98;nan;95716.50;5005515;28;20220;-72
2022/05/06 06:34:32;;;;;;;8.18;7.38;;;;;;;18.88;nan;95717.91;5005315;28;20205;-74
2022/05/06 06:36:59;;;;;;;7.93;7.30;;;;;;;18.50;nan;95716.59;5006591;28;20239;-70
2022/05/06 06:39:26;;;;;;;6.72;6.13;;;;;;;18.25;nan;95720.50;5006134;28;20215;-71
2022/05/06 06:41:54;;;;;;;7.55;6.93;;;;;;;18.11;nan;95722.94;5005940;28;20240;-71
2022/05/06 06:44:21;;;;;;;11.65;6.30;;;;;;;17.93;nan;95713.63;5010761;28;20213;-71
2022/05/06 06:46:48;;;;;;;9.65;7.65;;;;;;;18.18;nan;95720.88;5011079;28;20203;-71
2022/05/06 06:49:14;;;;;;;10.93;8.35;;;;;;;17.81;nan;95711.72;5012010;28;20626;-73
2022/05/06 06:51:41;;;;;;;8.35;5.97;;;;;;;17.35;nan;95716.53;5010962;28;20577;-71
2022/05/06 06:54:08;;;;;;;6.43;6.03;;;;;;;16.87;nan;95715.47;5012224;28;20251;-71
2022/05/06 06:56:35;;;;;;;8.52;6.32;;;;;;;16.65;nan;95717.38;5011428;28;20706;-70
2022/05/06 06:59:03;;;;;;;7.47;5.88;;;;;;;16.57;nan;95714.34;5015662;28;22050;-71
2022/05/06 07:01:32;;;;;;;12.57;5.72;;;;;;;16.88;nan;95713.72;5008408;28;20254;-70
2022/05/06 07:04:00;;;;;;;6.35;5.85;;;;;;;17.10;nan;95713.53;5008510;28;20208;-71
2022/05/06 07:11:56;;;;;;;4.63;4.32;;;;;;;17.56;nan;95712.09;5017068;28;20237;-71
2022/05/06 07:14:26;;;;;;;5.95;5.15;;;;;;;18.13;nan;95710.84;5011754;28;20206;-71
2022/05/06 07:16:54;;;;;;;5.53;5.13;;;;;;;18.00;nan;95707.25;5013207;28;20308;-72
2022/05/06 07:19:22;;;;;;;6.30;5.70;;;;;;;18.15;nan;95703.88;5011257;28;20197;-73
2022/05/06 07:21:51;;;;;;;6.10;5.20;;;;;;;18.12;nan;95701.47;5016725;28;20329;-72
2022/05/06 07:24:19;;;;;;;7.70;5.22;;;;;;;18.48;nan;95719.25;5014810;28;20200;-71
2022/05/06 07:26:46;;;;;;;6.47;5.40;;;;;;;18.71;nan;95715.44;5011001;28;20338;-72
2022/05/06 07:29:13;;;;;;;10.85;4.97;;;;;;;18.91;nan;95699.72;5010710;28;20225;-71
2022/05/06 07:31:42;;;;;;;8.68;5.53;;;;;;;19.24;nan;95706.47;5013549;28;20204;-72
2022/05/06 07:34:09;;;;;;;6.32;4.35;;;;;;;18.94;nan;95696.16;5011673;28;20204;-71
2022/05/06 07:36:41;;;;;;;6.28;5.38;;;;;;;19.05;nan;95704.13;5008726;28;20200;-72
2022/05/06 07:39:08;;;;;;;5.80;5.30;;;;;;;18.98;nan;95708.78;5004954;28;20211;-72
2022/05/06 07:41:35;;;;;;;5.55;5.05;;;;;;;19.13;nan;95703.66;5012159;28;20698;-72
2022/05/06 07:44:02;;;;;;;6.07;4.80;;;;;;;18.91;nan;95706.63;5010971;28;20553;-73
2022/05/06 07:46:28;;;;;;;7.68;5.97;;;;;;;18.73;nan;95713.63;5009940;28;20698;-71
2022/05/06 07:48:57;;;;;;;6.22;5.20;;;;;;;18.63;nan;95717.63;5010222;28;20208;-71
2022/05/06 07:51:23;;;;;;;5.55;5.07;;;;;;;18.32;nan;95714.09;5009008;28;20656;-71
2022/05/06 07:53:52;;;;;;;5.70;5.38;;;;;;;18.54;nan;95706.06;5010966;28;20291;-71
2022/05/06 07:56:20;;;;;;;7.38;6.60;;;;;;;18.69;nan;95694.13;5009810;28;20200;-71
2022/05/06 07:58:47;;;;;;;6.13;5.50;;;;;;;18.57;nan;95705.03;5007768;28;20236;-71
2022/05/06 08:01:14;;;;;;;6.25;5.07;;;;;;;18.89;nan;95698.97;5011352;28;20663;-71
2022/05/06 08:06:26;;;;;;;5.88;5.38;;;;;;;18.92;nan;95701.38;5008857;28;20218;-75
2022/05/06 08:08:53;;;;;;;10.40;6.13;;;;;;;19.29;nan;95700.13;5001735;28;20208;-73
2022/05/06 08:11:20;;;;;;;9.27;5.65;;;;;;;19.08;nan;95703.91;5001364;28;20216;-71
2022/05/06 08:13:49;;;;;;;5.45;4.95;;;;;;;18.94;nan;95701.28;5002706;28;20255;-73
2022/05/06 08:16:15;;;;;;;8.68;5.85;;;;;;;19.14;nan;95695.84;5003140;28;20235;-75
2022/05/06 08:18:42;;;;;;;5.85;5.25;;;;;;;19.33;nan;95688.69;5001971;28;20271;-74
2022/05/06 08:21:09;;;;;;;5.88;5.40;;;;;;;19.53;nan;95695.34;5002729;28;20212;-73
2022/05/06 08:23:37;;;;;;;7.57;4.88;;;;;;;19.69;nan;95693.50;5005214;28;20231;-73
2022/05/06 08:26:05;;;;;;;6.05;5.50;;;;;;;19.73;nan;95680.44;5004697;28;20231;-73
2022/05/06 08:28:32;;;;;;;6.00;5.43;;;;;;;19.48;nan;95694.72;5002892;28;20628;-73
2022/05/06 08:30:58;;;;;;;9.77;5.82;;;;;;;19.15;nan;95691.53;5002455;28;20219;-73
2022/05/06 08:33:26;;;;;;;6.07;5.50;;;;;;;19.41;nan;95690.84;5003229;28;20199;-73
2022/05/06 08:35:53;;;;;;;6.35;5.80;;;;;;;19.39;nan;95692.69;5003281;28;20307;-73
2022/05/06 08:38:21;;;;;;;5.57;5.03;;;;;;;19.56;nan;95683.97;5002446;28;20310;-72
2022/05/06 08:40:50;;;;;;;5.40;4.90;;;;;;;19.67;nan;95677.28;5002101;28;22282;-73
2022/05/06 08:43:17;;;;;;;6.07;5.13;;;;;;;20.15;nan;95682.97;5008541;28;20277;-73
2022/05/06 08:51:15;;;;;;;6.35;5.20;;;;;;;20.00;nan;95676.19;5004609;28;20250;-74
2022/05/06 08:53:41;;;;;;;5.22;4.93;;;;;;;19.79;nan;95680.91;5002469;28;20331;-72
2022/05/06 08:56:10;;;;;;;11.63;5.63;;;;;;;20.14;nan;95680.50;5003569;28;20301;-73
2022/05/06 08:58:37;;;;;;;4.53;4.22;;;;;;;20.10;nan;95684.16;5003083;28;20292;-72
2022/05/06 09:01:06;;;;;;;4.50;4.20;;;;;;;19.85;nan;95684.84;5003807;28;20204;-73
2022/05/06 09:03:34;;;;;;;5.63;5.13;;;;;;;19.78;nan;95691.31;5003138;28;20221;-73
2022/05/06 09:06:01;;;;;;;4.72;4.03;;;;;;;19.81;nan;95686.75;5000725;28;20203;-73
2022/05/06 09:08:38;;;;;;;7.03;4.95;;;;;;;19.79;nan;95683.47;5001378;28;20227;-74
2022/05/06 09:11:07;;;;;;;4.45;4.13;;;;;;;19.91;nan;95679.31;4998210;28;20271;-73
2022/05/06 09:13:37;;;;;;;6.15;4.22;;;;;;;19.99;nan;95684.84;5000701;28;20708;-74
2022/05/06 09:19:20;;;;;;;4.35;3.97;;;;;;;20.37;nan;95659.28;5000358;28;20622;-72
2022/05/06 09:22:06;;;;;;;4.60;4.30;;;;;;;20.56;nan;95656.34;5001959;28;20286;-72
2022/05/06 09:24:34;;;;;;;5.43;5.03;;;;;;;20.29;nan;95669.25;5001267;28;20244;-72
2022/05/06 09:27:04;;;;;;;4.85;4.38;;;;;;;19.78;nan;95673.25;5001423;28;20523;-72
2022/05/06 09:30:09;;;;;;;10.27;5.13;;;;;;;19.24;nan;95668.63;4999844;28;20671;-73
2022/05/06 09:32:37;;;;;;;10.35;4.40;;;;;;;19.36;nan;95662.75;5001820;28;20216;-73
2022/05/06 09:35:13;;;;;;;4.78;4.35;;;;;;;19.56;nan;95640.97;5000267;28;20243;-72
2022/05/06 09:37:42;;;;;;;5.03;4.32;;;;;;;19.54;nan;95647.19;5001172;28;20234;-72
2022/05/06 09:40:13;;;;;;;5.07;4.78;;;;;;;19.61;nan;95645.88;5000128;28;20204;-73
2022/05/06 09:42:41;;;;;;;4.47;4.28;;;;;;;19.54;nan;95642.84;5001534;28;20262;-72
2022/05/06 09:45:11;;;;;;;5.28;4.78;;;;;;;19.50;nan;95633.63;5000424;28;20687;-72
2022/05/06 09:47:40;;;;;;;5.05;4.65;;;;;;;19.45;nan;95640.78;5000526;28;20271;-72
2022/05/06 09:50:08;;;;;;;5.03;4.68;;;;;;;19.75;nan;95634.75;5002345;28;20200;-72
2022/05/06 09:52:35;;;;;;;4.25;3.97;;;;;;;20.02;nan;95645.97;5001042;28;20695;-74
2022/05/06 09:55:03;;;;;;;4.43;4.03;;;;;;;19.85;nan;95644.38;5003051;28;20679;-72
2022/05/06 09:57:32;;;;;;;4.63;4.20;;;;;;;20.09;nan;95642.06;5003028;28;20261;-73
2022/05/06 09:59:58;;;;;;;4.95;4.53;;;;;;;20.20;nan;95644.81;5000455;28;20888;-72
2022/05/06 10:02:26;;;;;;;4.65;4.40;;;;;;;20.23;nan;95644.63;5001935;28;20246;-72
2022/05/06 10:04:55;;;;;;;4.35;3.67;;;;;;;20.15;nan;95639.09;5001978;28;20204;-73
2022/05/06 10:07:25;;;;;;;6.13;4.70;;;;;;;20.05;nan;95636.25;5011836;28;20207;-74
2022/05/06 10:09:57;;;;;;;4.53;4.22;;;;;;;20.31;nan;95637.22;5007899;28;20536;-73
2022/05/06 10:12:26;;;;;;;4.95;4.50;;;;;;;20.34;nan;95631.03;5011858;28;20206;-73
2022/05/06 10:14:54;;;;;;;4.47;4.18;;;;;;;20.60;nan;95632.00;5010682;28;20207;-74
2022/05/06 10:17:53;;;;;;;4.85;4.55;;;;;;;20.37;nan;95626.53;5009864;28;20228;-72
2022/05/06 10:20:48;;;;;;;5.07;4.55;;;;;;;20.39;nan;95621.28;4988040;28;20204;-74
2022/05/06 10:23:15;;;;;;;4.90;4.50;;;;;;;20.46;nan;95625.16;5008952;28;20196;-76
2022/05/06 10:25:54;;;;;;;5.57;4.88;;;;;;;20.31;nan;95626.88;5009975;28;20742;-74
2022/05/06 10:34:30;;;;;;;4.97;4.28;;;;;;;20.18;nan;95625.19;5007846;28;20593;-73
2022/05/06 10:37:00;;;;;;;4.50;4.20;;;;;;;20.27;nan;95617.72;5012215;28;20570;-73
2022/05/06 10:39:28;;;;;;;4.35;4.10;;;;;;;20.30;nan;95614.06;5008537;28;20315;-73
2022/05/06 10:42:07;;;;;;;6.15;4.10;;;;;;;20.41;nan;95608.28;5008010;28;20200;-76
2022/05/06 10:44:35;;;;;;;4.70;4.22;;;;;;;20.46;nan;95614.81;5026544;28;20204;-76
2022/05/06 10:47:03;;;;;;;5.20;4.30;;;;;;;20.00;nan;95620.25;5030183;28;20664;-72
2022/05/06 10:49:52;;;;;;;4.55;3.63;;;;;;;19.90;nan;95610.59;5013958;28;20256;-73
2022/05/06 10:52:41;;;;;;;4.32;3.88;;;;;;;20.06;nan;95611.28;5011420;28;20603;-73
2022/05/06 10:55:10;;;;;;;3.85;3.55;;;;;;;20.25;nan;95605.81;5012382;28;20264;-73
2022/05/06 10:57:49;;;;;;;4.65;4.32;;;;;;;20.45;nan;95602.84;5012923;28;20227;-73
2022/05/06 11:00:17;;;;;;;4.43;4.07;;;;;;;20.74;nan;95598.38;5013332;28;20205;-72
2022/05/06 11:02:44;;;;;;;3.85;3.55;;;;;;;20.92;nan;95602.34;5014315;28;20204;-75
2022/05/06 11:05:15;;;;;;;3.75;3.45;;;;;;;20.85;nan;95601.06;5032818;28;20192;-72
2022/05/06 11:07:43;;;;;;;3.90;3.65;;;;;;;20.84;nan;95596.84;5030759;28;20265;-71
2022/05/06 11:10:12;;;;;;;3.80;3.60;;;;;;;20.60;nan;95596.66;5013315;28;20196;-74
2022/05/06 11:12:41;;;;;;;3.58;3.38;;;;;;;20.79;nan;95591.13;5013180;28;20204;-74
2022/05/06 11:15:10;;;;;;;4.28;3.97;;;;;;;20.53;nan;95599.78;5011699;28;20711;-72
2022/05/06 11:17:37;;;;;;;3.72;3.40;;;;;;;20.26;nan;95592.00;5013739;28;20691;-75
2022/05/06 11:20:14;;;;;;;3.67;3.47;;;;;;;20.40;nan;95583.38;5032795;28;20262;-72
2022/05/06 11:23:00;;;;;;;4.10;3.22;;;;;;;20.50;nan;95579.31;5031915;28;20195;-72
2022/05/06 11:25:31;;;;;;;3.00;2.85;;;;;;;20.28;nan;95570.31;5032764;28;20774;-75
2022/05/06 11:27:59;;;;;;;4.35;3.75;;;;;;;20.60;nan;95576.00;5027855;28;20643;-73
2022/05/06 11:30:28;;;;;;;3.30;3.10;;;;;;;20.58;nan;95579.63;5013142;28;20558;-74
2022/05/06 11:32:57;;;;;;;3.22;3.03;;;;;;;20.59;nan;95573.53;5012702;28;20196;-73
2022/05/06 11:35:32;;;;;;;3.38;3.17;;;;;;;20.68;nan;95567.78;5012871;28;20201;-74
2022/05/06 11:38:01;;;;;;;4.13;3.83;;;;;;;20.50;nan;95564.66;5012313;28;20230;-73
2022/05/06 11:40:34;;;;;;;4.32;4.00;;;;;;;20.53;nan;95558.47;5012726;28;20208;-74
2022/05/06 11:43:06;;;;;;;6.03;4.25;;;;;;;20.72;nan;95551.16;5012288;28;20629;-73
2022/05/06 11:48:21;;;;;;;3.05;2.85;;;;;;;20.90;nan;95568.03;5012743;28;20708;-72
2022/05/06 11:50:56;;;;;;;2.60;2.42;;;;;;;20.84;nan;95563.25;5012084;28;20201;-73
2022/05/06 11:53:27;;;;;;;4.10;3.33;;;;;;;20.77;nan;95559.44;5012490;28;20670;-73
2022/05/06 11:55:55;;;;;;;3.70;3.25;;;;;;;20.77;nan;95562.03;5030671;28;20366;-72
2022/05/06 11:58:23;;;;;;;3.15;2.88;;;;;;;20.71;nan;95554.66;5031604;28;20266;-72
2022/05/06 12:00:52;;;;;;;2.83;2.58;;;;;;;20.95;nan;95550.47;5031557;28;20211;-73
2022/05/06 12:03:19;;;;;;;2.90;2.70;;;;;;;20.91;nan;95543.00;5031972;28;20192;-73
2022/05/06 12:06:00;;;;;;;3.85;3.10;;;;;;;21.03;nan;95553.34;5012104;28;20196;-71
2022/05/06 12:08:30;;;;;;;2.70;2.50;;;;;;;21.28;nan;95538.81;5011227;28;20204;-74
2022/05/06 12:11:02;;;;;;;3.03;2.70;;;;;;;21.21;nan;95530.66;5012041;28;20641;-73
2022/05/06 12:13:38;;;;;;;5.90;2.97;;;;;;;21.30;nan;95542.94;5011450;28;20200;-71
2022/05/06 12:16:07;;;;;;;4.03;2.50;;;;;;;21.43;nan;95535.19;5012083;28;20231;-72
2022/05/06 12:18:34;;;;;;;3.47;2.60;;;;;;;21.17;nan;95528.34;5011590;28;20236;-72
2022/05/06 12:21:16;;;;;;;3.40;2.58;;;;;;;21.46;nan;95524.63;5011906;28;20676;-72
2022/05/06 12:23:50;;;;;;;2.88;2.50;;;;;;;21.48;nan;95520.19;5013781;28;20203;-74
2022/05/06 12:26:30;;;;;;;2.88;2.67;;;;;;;21.56;nan;95515.28;5030198;28;20302;-75
2022/05/06 12:28:57;;;;;;;2.50;2.35;;;;;;;21.48;nan;95517.59;5024487;28;20203;-73
2022/05/06 12:31:30;;;;;;;3.60;2.22;;;;;;;21.31;nan;95505.81;5009645;28;20196;-73
2022/05/06 12:34:08;;;;;;;2.45;2.35;;;;;;;21.50;nan;95505.38;5013331;28;20188;-74
2022/05/06 12:36:36;;;;;;;2.90;2.20;;;;;;;21.65;nan;95506.06;5029682;28;20206;-70
2022/05/06 12:39:17;;;;;;;2.35;2.25;;;;;;;21.52;nan;95493.19;5023945;28;20310;-71
2022/05/06 12:41:44;;;;;;;4.22;2.95;;;;;;;21.46;nan;95506.53;5011218;28;20698;-71
2022/05/06 12:44:22;;;;;;;4.63;2.38;;;;;;;21.42;nan;95494.72;5016651;28;20294;-70